Aérodrome :
LOGIN :

S'inscrire | Disclaimer

   EN    FR    IT 

 










Légende :    VFR   VFR Marginal   IFR   IFR Intensif   IFR Très Intensif
Visi : 
Plafond : 
>= 8 km
>= 3000ft
5 à 8 km
1000 à 3000 ft
1500m à 5 km
500 à 1000 ft
800 à 1500m
200 à 500 ft
< 800m
< 200 ft
Symboles :   Orages  Brouillard  Fortes neiges  Fortes précipitations  Vent > 20 kt
SIGMETs :   Divers  Orages  Givrage  Turbulence  Onde Orograph.  Cendres Volcan.







- Altitude de l'aérodrome : 72 ft
- Code IATA : UDE


EHVK - Volkel Airbase

DERNIER METAR :
  • 202225Z AUTO 22005KT 9999 NCD 14/12 Q1013 BLU

METARs EXPIRÉS :
  • 202155Z AUTO 26004KT 220V290 9999 NCD 16/12 Q1013 BLU
  • 202125Z AUTO 25005KT 220V290 9999 FEW035 SCT052 16/12 Q1013 BLU
  • 202055Z AUTO 27005KT 240V300 9999 FEW041 17/13 Q1013 BLU
  • 202025Z AUTO 28004KT 9999 FEW039 BKN043 BKN047 18/12 Q1012 BLU
  • 201955Z AUTO 27008KT 230V310 9999 FEW037 SCT043 19/12 Q1012 BLU
  • 201925Z AUTO 27010KT 230V320 9999 OVC037 20/13 Q1011 BLU

TAF TAF EHVK
Valide du 20 à 21h jusqu'au 21 à 09h UTC


202029Z 2021/2109 21005KT 9999 SCT040
Pas de NOTAMs connus pour ce terrain.



MET'MAP, la Météo Aéronautique d'un coup d'oeil ! - Copyright ORBIFLY Décembre 2007 - Disclaimer

ORBIFLY MET'MAP TEAM :

Programmation & Développement : Alexandra Zaïnal
Conception & Développement : Baudouin d'Aumeries
Co-Programmation & Développement : Marc-Olivier Méhu
Soutien technique & logistique : Manuel Goepfert

Contact : metmap@orbifly.com




SOURCES & CREDITS :

   NOAA